• Join FlightAware (Why Join?)
  • Login
  • US Flag 
10:25PM EST


 

Airport Tracker/Info


-or-


 

Live Flight TrackerFlight Track Log ✈ ASQ5430 ✈ 01-May-2014 ✈ KLGA - KBGR

Flight Track Log - Related Links

Times and Time Zones

All times are in EDT time to prevent confusion due to time zone crossing. See the ASQ5430 flight status page for this flight to view local times or setup timezone preferences in your user account.

Time Position Orientation Groundspeed Altitude Reporting Facility
EDT Latitude Longitude Course Direction KTS MPH feet Rate Location/Type
10:50AM 40.7986 -73.7206 39° Northeast 254 292 4,500  Level Boston Center
10:51AM 40.8333 -73.6833 39° Northeast 291 335 6,100 2,460 Climbing New York TRACON
10:52AM 40.9167 -73.6500 17° North 307 353 8,200 2,040 Climbing New York TRACON
10:53AM 41.0000 -73.6000 24° Northeast 336 387 10,000 1,860 Climbing New York TRACON
10:54AM 41.1433 -73.5225 22° Northeast 377 434 13,000 1,800 Climbing Boston Center
10:55AM 41.2133 -73.3997 53° Northeast 412 474 14,800 960 Climbing Boston Center
10:56AM 41.2364 -73.2747 76° East 405 466 15,000 960 Climbing Boston Center
10:57AM 41.3411 -73.2031 27° Northeast 385 443 16,800 1,620 Climbing Boston Center
10:58AM 41.4317 -73.2725 330° Northwest 375 432 18,300 1,560 Climbing Boston Center
10:59AM 41.5264 -73.2486 11° North 425 489 20,000 1,800 Climbing Boston Center
11:00AM 41.6242 -73.1342 41° Northeast 444 511 22,000 1,500 Climbing Boston Center
11:01AM 41.7381 -73.1258 North 419 482 23,100 1,020 Climbing Boston Center
11:02AM 41.8569 -73.1450 353° North 427 491 24,100 1,080 Climbing Boston Center
11:03AM 41.9767 -73.1658 353° North 432 497 25,400 1,020 Climbing Boston Center
11:04AM 42.1267 -73.1917 353° North 448 516 26,200 780 Climbing Boston Center
11:05AM 42.2533 -73.1314 19° North 500 575 27,100 900 Climbing Boston Center
11:06AM 42.3453 -72.9908 48° Northeast 527 606 28,100 960 Climbing Boston Center
11:07AM 42.4414 -72.8400 49° Northeast 528 608 29,100 960 Climbing Boston Center
11:08AM 42.5375 -72.6864 50° Northeast 530 610 30,100 1,020 Climbing Boston Center
11:10AM 42.6344 -72.5333 49° Northeast 530 610 31,200 1,020 Climbing Boston Center
11:11AM 42.7294 -72.3814 50° Northeast 530 610 32,200 840 Climbing Boston Center
11:12AM 42.8369 -72.2069 50° Northeast 527 606 33,000 360 Climbing Boston Center
11:13AM 42.9333 -72.0517 50° Northeast 534 615 33,000  Level Boston Center
11:14AM 43.0319 -71.8897 50° Northeast 552 635 33,000  Level Boston Center
11:15AM 43.1325 -71.7250 50° Northeast 559 643 33,000  Level Boston Center
11:16AM 43.2347 -71.5553 50° Northeast 576 663 33,000  Level Boston Center
11:17AM 43.3361 -71.3881 50° Northeast 575 662 33,000  Level Boston Center
11:18AM 43.4375 -71.2183 51° Northeast 575 662 33,000  Level Boston Center
11:19AM 43.5378 -71.0514 50° Northeast 572 658 33,000  Level Boston Center
11:20AM 43.6564 -70.8511 51° Northeast 566 651 33,000  Level Boston Center
11:21AM 43.7572 -70.6792 51° Northeast 564 649 33,000  Level Boston Center
11:22AM 43.8547 -70.5114 51° Northeast 562 647 33,000  Level Boston Center
11:23AM 43.9514 -70.3464 51° Northeast 553 636 33,000 -900 Level Boston Center
11:24AM 44.0403 -70.1919 51° Northeast 514 592 31,200 -2,580 Descending Boston Center
11:25AM 44.1289 -70.0372 51° Northeast 511 588 27,800 -3,420 Descending Boston Center
11:26AM 44.2172 -69.8842 51° Northeast 510 587 24,300 -3,420 Descending Boston Center
11:27AM 44.3031 -69.7356 51° Northeast 495 570 20,800 -3,540 Descending Boston Center
11:28AM 44.3842 -69.5894 52° Northeast 482 555 17,100 -3,540 Descending Boston Center
11:29AM 44.4603 -69.4542 52° Northeast 448 516 13,700 -2,640 Descending Boston Center
11:30AM 44.5667 -69.3533 34° Northeast 380 437 11,700 -2,160 Descending Boston Center
11:31AM 44.6472 -69.2953 27° Northeast 339 390 9,300 -2,280 Descending Boston Center
11:32AM 44.7233 -69.2392 28° Northeast 318 366 7,100 -2,220 Descending Boston Center
11:33AM 44.8033 -69.1878 24° Northeast 315 362 4,800 -1,740 Descending Boston Center
11:34AM 44.8856 -69.1394 23° Northeast 317 365 3,600 -1,080 Descending Boston Center
11:35AM 44.9483 -69.0819 33° Northeast 292 336 2,700 -420 Descending Boston Center
11:37AM 44.9056 -68.9736 119° Southeast 175 201 2,400 -240 Descending Boston Center
11:38AM 44.8794 -68.9336 133° Southeast 150 173 2,100 -540 Descending Boston Center
11:39AM 44.8564 -68.9006 135° Southeast 132 152 1,400 -720 Descending Boston Center
11:40AM 44.8339 -68.8672 134° Southeast 123 142 700 -600 Descending Boston Center
11:41AM 44.8069 -68.8281 134° Southeast 122 140 300 -420 Descending Boston Center